createdAt,value
2022-11-18T00:07:18.966Z,13.33
2022-11-18T00:17:20.497Z,12.94
2022-11-18T00:27:21.942Z,12.71
2022-11-18T00:37:23.422Z,12.72
2022-11-18T00:47:24.960Z,12.48
2022-11-18T00:57:26.414Z,12.25
2022-11-18T01:07:27.915Z,12.03
2022-11-18T01:17:30.966Z,11.89
2022-11-18T01:27:32.492Z,11.85
2022-11-18T01:37:33.986Z,11.89
2022-11-18T01:47:45.126Z,12.05
2022-11-18T01:57:49.841Z,12.14
2022-11-18T02:07:51.350Z,12.29
2022-11-18T02:18:12.524Z,12.46
2022-11-18T02:28:35.464Z,12.42
2022-11-18T02:38:50.765Z,12.44
2022-11-18T02:48:54.162Z,12.51
2022-11-18T02:58:55.714Z,12.47
2022-11-18T03:09:15.258Z,12.46
2022-11-18T03:19:35.819Z,12.60
2022-11-18T03:29:44.579Z,12.78
2022-11-18T03:39:53.819Z,12.73
2022-11-18T03:50:04.105Z,12.70
2022-11-18T04:00:15.892Z,12.75
2022-11-18T04:10:37.712Z,12.81
2022-11-18T04:20:39.404Z,12.93
2022-11-18T04:30:41.032Z,12.92
2022-11-18T04:40:42.595Z,12.93
2022-11-18T04:50:44.034Z,13.02
2022-11-18T05:00:45.503Z,13.01
2022-11-18T05:10:46.973Z,12.92
2022-11-18T05:20:48.413Z,12.95
2022-11-18T05:30:49.907Z,13.03
2022-11-18T05:40:51.351Z,13.11
2022-11-18T05:50:54.628Z,13.21
2022-11-18T06:01:03.155Z,13.15
2022-11-18T06:11:08.744Z,13.14
2022-11-18T06:21:10.321Z,13.03
2022-11-18T06:31:11.842Z,12.90
2022-11-18T06:41:13.363Z,12.80
2022-11-18T06:51:15.264Z,12.68
2022-11-18T07:01:19.553Z,12.80
2022-11-18T07:11:24.242Z,12.75
2022-11-18T07:21:27.997Z,12.56
2022-11-18T07:31:29.651Z,12.53
2022-11-18T07:41:31.264Z,12.60
2022-11-18T07:51:35.604Z,12.57
2022-11-18T08:01:37.130Z,12.71
2022-11-18T08:11:38.761Z,12.58
2022-11-18T08:21:40.225Z,12.42
2022-11-18T08:31:41.741Z,12.68
2022-11-18T08:41:44.592Z,12.56
2022-11-18T08:51:46.112Z,13.27
2022-11-18T09:01:47.645Z,13.46
2022-11-18T09:11:49.160Z,13.91
2022-11-18T09:21:50.873Z,14.02
2022-11-18T09:31:53.753Z,13.57
2022-11-18T09:42:12.336Z,13.52
2022-11-18T09:52:20.030Z,13.72
2022-11-18T10:02:58.179Z,13.45
2022-11-18T10:13:13.033Z,13.59
2022-11-18T10:23:34.135Z,13.53
2022-11-18T10:33:36.564Z,13.52
2022-11-18T10:43:44.059Z,13.57
2022-11-18T10:53:45.505Z,14.01
2022-11-18T11:04:12.789Z,14.40
2022-11-18T11:14:28.487Z,14.14
2022-11-18T11:24:29.937Z,13.88
2022-11-18T11:34:50.193Z,13.82
2022-11-18T11:45:06.496Z,13.93
2022-11-18T11:55:31.894Z,14.25
2022-11-18T12:05:39.387Z,14.42
2022-11-18T12:16:01.919Z,14.02
2022-11-18T12:26:06.357Z,13.72
2022-11-18T12:36:08.229Z,13.67
2022-11-18T12:46:09.704Z,13.12
2022-11-18T12:56:17.206Z,13.27
2022-11-18T13:06:21.941Z,13.24
2022-11-18T13:16:45.198Z,13.12
2022-11-18T13:26:48.487Z,12.77
2022-11-18T13:36:52.347Z,13.12
2022-11-18T13:47:19.280Z,12.99
2022-11-18T13:57:24.786Z,12.91
2022-11-18T14:07:35.290Z,13.01
2022-11-18T14:17:36.944Z,12.78
2022-11-18T14:27:43.788Z,12.70
2022-11-18T14:37:45.794Z,12.67
2022-11-18T14:47:47.278Z,12.58
2022-11-18T14:57:48.733Z,12.58
2022-11-18T15:07:50.193Z,12.36
2022-11-18T15:17:54.099Z,12.12
2022-11-18T15:27:55.748Z,11.98
2022-11-18T15:37:59.381Z,11.90
2022-11-18T15:48:00.820Z,11.87
2022-11-18T15:58:02.276Z,11.97
2022-11-18T16:08:03.810Z,11.97
2022-11-18T16:18:05.773Z,12.17
2022-11-18T16:28:07.619Z,12.17
2022-11-18T16:38:09.609Z,12.24
2022-11-18T16:48:12.111Z,12.08
2022-11-18T16:58:14.781Z,12.11
2022-11-18T17:08:16.248Z,12.12
2022-11-18T17:18:17.690Z,11.86
2022-11-18T17:28:19.140Z,12.26
2022-11-18T17:38:20.564Z,12.00
2022-11-18T17:48:24.332Z,11.90
2022-11-18T17:58:25.798Z,11.63
2022-11-18T18:08:27.287Z,11.46
2022-11-18T18:18:29.428Z,11.63
2022-11-18T18:28:31.380Z,11.84
2022-11-18T18:38:34.696Z,11.64
2022-11-18T18:48:36.223Z,11.69
2022-11-18T18:58:37.682Z,11.64
2022-11-18T19:08:39.177Z,11.97
2022-11-18T19:18:40.852Z,11.81
2022-11-18T19:28:42.552Z,11.80
2022-11-18T19:38:44.796Z,11.93
2022-11-18T19:48:49.264Z,11.95
2022-11-18T19:58:50.790Z,11.90
2022-11-18T20:08:53.691Z,11.71
2022-11-18T20:19:02.892Z,11.69
2022-11-18T20:29:08.617Z,11.49
2022-11-18T20:39:15.503Z,11.08
2022-11-18T20:49:17.191Z,10.42
2022-11-18T20:59:18.993Z,9.98
2022-11-18T21:09:21.257Z,10.15
2022-11-18T21:19:23.018Z,10.15
2022-11-18T21:29:27.138Z,9.98
2022-11-18T21:39:28.603Z,9.95
2022-11-18T21:49:30.230Z,10.25
2022-11-18T21:59:31.777Z,10.29
2022-11-18T22:09:36.845Z,10.30
2022-11-18T22:19:38.564Z,10.22
2022-11-18T22:29:40.004Z,10.26
2022-11-18T22:39:42.273Z,10.39
2022-11-18T22:49:43.716Z,10.82
2022-11-18T22:59:45.169Z,10.82
2022-11-18T23:09:46.604Z,10.80
2022-11-18T23:19:48.121Z,10.71
2022-11-18T23:29:49.590Z,10.86
2022-11-18T23:39:51.030Z,10.89
2022-11-18T23:49:52.593Z,10.96
2022-11-18T23:59:54.042Z,10.96
